createdAt,value
2024-05-09T00:00:35.812Z,102546.19
2024-05-09T00:03:10.192Z,102551.44
2024-05-09T00:05:38.419Z,102526.41
2024-05-09T00:08:05.970Z,102535.63
2024-05-09T00:10:37.227Z,102553.25
2024-05-09T00:13:09.762Z,102543.34
2024-05-09T00:15:37.176Z,102542.75
2024-05-09T00:18:05.315Z,102527.91
2024-05-09T00:20:37.993Z,102540.78
2024-05-09T00:23:09.258Z,102545.44
2024-05-09T00:25:36.790Z,102538.47
2024-05-09T00:28:03.700Z,102540.19
2024-05-09T00:30:35.047Z,102536.84
2024-05-09T00:33:07.777Z,102536.84
2024-05-09T00:35:35.786Z,102526.75
2024-05-09T00:38:02.717Z,102515.81
2024-05-09T00:40:40.016Z,102526.75
2024-05-09T00:43:09.915Z,102526.06
2024-05-09T00:45:36.649Z,102513.50
2024-05-09T00:48:07.121Z,102522.94
2024-05-09T00:50:37.557Z,102523.19
2024-05-09T00:53:10.962Z,102520.53
2024-05-09T00:55:38.880Z,102520.63
2024-05-09T00:58:08.214Z,102514.78
2024-05-09T01:00:39.322Z,102514.16
2024-05-09T01:03:09.724Z,102513.28
2024-05-09T01:05:39.212Z,102522.13
2024-05-09T01:08:07.094Z,102502.47
2024-05-09T01:10:35.472Z,102518.19
2024-05-09T01:13:04.458Z,102518.19
2024-05-09T01:15:31.596Z,102514.97
2024-05-09T01:18:01.018Z,102517.63
2024-05-09T01:20:39.029Z,102523.78
2024-05-09T01:23:09.854Z,102516.25
2024-05-09T01:25:36.958Z,102521.41
2024-05-09T01:28:03.864Z,102526.91
2024-05-09T01:30:34.981Z,102524.31
2024-05-09T01:33:05.377Z,102524.56
2024-05-09T01:35:33.227Z,102513.19
2024-05-09T01:37:59.971Z,102505.53
2024-05-09T01:40:36.259Z,102507.53
2024-05-09T01:43:06.033Z,102515.41
2024-05-09T01:45:32.779Z,102520.91
2024-05-09T01:47:59.754Z,102513.09
2024-05-09T01:50:37.278Z,102514.25
2024-05-09T01:53:08.964Z,102510.97
2024-05-09T01:55:35.730Z,102506.59
2024-05-09T01:58:02.319Z,102511.50
2024-05-09T02:00:37.371Z,102510.66
2024-05-09T02:03:10.740Z,102487.63
2024-05-09T02:05:39.306Z,102510.91
2024-05-09T02:08:07.263Z,102511.03
2024-05-09T02:10:33.984Z,102512.06
2024-05-09T02:13:01.063Z,102503.31
2024-05-09T02:15:27.846Z,102491.41
2024-05-09T02:17:54.702Z,102489.84
2024-05-09T02:20:30.255Z,102508.91
2024-05-09T02:23:03.817Z,102513.38
2024-05-09T02:25:30.929Z,102509.94
2024-05-09T02:27:57.539Z,102515.31
2024-05-09T02:30:37.717Z,102501.69
2024-05-09T02:33:08.210Z,102510.34
2024-05-09T02:35:35.729Z,102512.25
2024-05-09T02:38:02.559Z,102509.66
2024-05-09T02:40:36.527Z,102508.13
2024-05-09T02:43:10.467Z,102511.88
2024-05-09T02:45:41.173Z,102509.56
2024-05-09T02:48:12.203Z,102512.16
2024-05-09T02:50:44.415Z,102505.44
2024-05-09T02:53:11.917Z,102510.91
2024-05-09T02:55:39.164Z,102495.41
2024-05-09T02:58:07.304Z,102514.59
2024-05-09T03:00:38.857Z,102513.06
2024-05-09T03:03:09.587Z,102495.88
2024-05-09T03:05:37.804Z,102507.13
2024-05-09T03:08:04.875Z,102511.59
2024-05-09T03:10:36.250Z,102503.78
2024-05-09T03:13:13.824Z,102515.34
2024-05-09T03:15:41.969Z,102498.34
2024-05-09T03:18:08.831Z,102491.38
2024-05-09T03:20:36.826Z,102510.44
2024-05-09T03:23:09.397Z,102504.28
2024-05-09T03:25:36.981Z,102494.75
2024-05-09T03:28:03.769Z,102494.19
2024-05-09T03:30:39.322Z,102488.88
2024-05-09T03:33:19.959Z,102492.53
2024-05-09T03:35:48.544Z,102494.13
2024-05-09T03:38:15.761Z,102484.56
2024-05-09T03:40:46.773Z,102492.25
2024-05-09T03:43:13.968Z,102499.34
2024-05-09T03:45:40.607Z,102496.63
2024-05-09T03:48:07.935Z,102493.88
2024-05-09T03:50:36.234Z,102491.06
2024-05-09T03:53:03.983Z,102491.94
2024-05-09T03:55:31.170Z,102485.75
2024-05-09T03:57:57.869Z,102490.13
2024-05-09T04:00:31.421Z,102475.59
2024-05-09T04:03:05.916Z,102497.59
2024-05-09T04:05:34.405Z,102496.66
2024-05-09T04:08:01.496Z,102504.56
2024-05-09T04:10:35.123Z,102493.69
2024-05-09T04:13:03.283Z,102489.31
2024-05-09T04:15:30.468Z,102490.09
2024-05-09T04:17:57.186Z,102497.88
2024-05-09T04:20:33.360Z,102491.53
2024-05-09T04:23:14.713Z,102487.00
2024-05-09T04:25:43.121Z,102502.53
2024-05-09T04:28:10.034Z,102498.75
2024-05-09T04:30:39.642Z,102484.59
2024-05-09T04:33:10.754Z,102498.19
2024-05-09T04:35:39.398Z,102487.63
2024-05-09T04:38:06.539Z,102498.50
2024-05-09T04:40:36.098Z,102491.41
2024-05-09T04:43:04.995Z,102500.47
2024-05-09T04:45:31.908Z,102486.31
2024-05-09T04:47:58.926Z,102494.59
2024-05-09T04:50:35.200Z,102496.81
2024-05-09T04:53:05.625Z,102500.00
2024-05-09T04:55:39.240Z,102502.09
2024-05-09T04:58:08.717Z,102494.13
2024-05-09T05:00:37.687Z,102495.13
2024-05-09T05:03:09.344Z,102506.41
2024-05-09T05:05:41.329Z,102482.44
2024-05-09T05:08:18.974Z,102502.00
2024-05-09T05:10:47.195Z,102504.00
2024-05-09T05:13:23.049Z,102506.41
2024-05-09T05:15:56.968Z,102501.94
2024-05-09T05:18:25.969Z,102508.63
2024-05-09T05:20:52.792Z,102494.69
2024-05-09T05:23:20.972Z,102496.19
2024-05-09T05:25:50.196Z,102506.25
2024-05-09T05:28:17.208Z,102502.56
2024-05-09T05:30:44.404Z,102505.94
2024-05-09T05:33:12.925Z,102504.81
2024-05-09T05:35:40.866Z,102501.00
2024-05-09T05:38:08.780Z,102505.28
2024-05-09T05:40:38.355Z,102504.25
2024-05-09T05:43:07.343Z,102501.25
2024-05-09T05:45:34.010Z,102504.88
2024-05-09T05:48:04.028Z,102503.16
2024-05-09T05:50:35.876Z,102485.34
2024-05-09T05:53:07.057Z,102515.75
2024-05-09T05:55:34.363Z,102509.03
2024-05-09T05:58:02.374Z,102510.81
2024-05-09T06:00:35.530Z,102506.47
2024-05-09T06:03:06.060Z,102511.59
2024-05-09T06:05:33.114Z,102503.31
2024-05-09T06:08:00.147Z,102503.72
2024-05-09T06:10:36.961Z,102501.13
2024-05-09T06:13:06.398Z,102487.94
2024-05-09T06:15:32.964Z,102498.53
2024-05-09T06:17:59.718Z,102477.88
2024-05-09T06:20:34.825Z,102493.22
2024-05-09T06:23:04.415Z,102494.44
2024-05-09T06:25:31.425Z,102496.69
2024-05-09T06:27:59.030Z,102474.09
2024-05-09T06:30:30.970Z,102489.56
2024-05-09T06:33:06.042Z,102490.78
2024-05-09T06:35:33.631Z,102491.84
2024-05-09T06:38:00.689Z,102501.56
2024-05-09T06:40:36.215Z,102475.75
2024-05-09T06:43:10.190Z,102504.03
2024-05-09T06:45:37.075Z,102492.16
2024-05-09T06:48:04.231Z,102502.28
2024-05-09T06:50:37.005Z,102506.41
2024-05-09T06:53:05.463Z,102489.31
2024-05-09T06:55:32.165Z,102488.47
2024-05-09T06:57:59.075Z,102502.41
2024-05-09T07:00:34.553Z,102505.53
2024-05-09T07:03:15.655Z,102506.81
2024-05-09T07:05:45.245Z,102495.88
2024-05-09T07:08:12.325Z,102511.59
2024-05-09T07:10:39.093Z,102512.25
2024-05-09T07:13:13.494Z,102504.66
2024-05-09T07:15:41.548Z,102510.28
2024-05-09T07:18:17.379Z,102503.88
2024-05-09T07:20:45.582Z,102511.72
2024-05-09T07:23:12.760Z,102516.91
2024-05-09T07:25:40.582Z,102515.59
2024-05-09T07:28:15.397Z,102510.38
2024-05-09T07:30:42.953Z,102489.00
2024-05-09T07:33:09.857Z,102514.09
2024-05-09T07:35:37.203Z,102499.78
2024-05-09T07:38:04.104Z,102494.47
2024-05-09T07:40:35.944Z,102499.47
2024-05-09T07:43:04.584Z,102507.69
2024-05-09T07:45:48.042Z,102511.06
2024-05-09T07:53:38.907Z,102506.72
2024-05-09T07:56:09.392Z,102510.69
2024-05-09T07:58:36.806Z,102506.09
2024-05-09T08:01:03.668Z,102497.00
2024-05-09T08:03:30.906Z,102468.66
2024-05-09T08:05:57.827Z,102500.38
2024-05-09T08:08:24.483Z,102499.03
2024-05-09T08:10:51.324Z,102481.50
2024-05-09T08:13:18.207Z,102495.16
2024-05-09T08:15:45.043Z,102489.28
2024-05-09T08:18:12.143Z,102469.44
2024-05-09T08:20:39.537Z,102500.81
2024-05-09T08:23:06.404Z,102489.50
2024-05-09T08:25:33.136Z,102499.66
2024-05-09T08:27:59.919Z,102490.84
2024-05-09T08:30:33.414Z,102494.25
2024-05-09T08:33:05.100Z,102479.53
2024-05-09T08:35:32.736Z,102477.88
2024-05-09T08:37:59.474Z,102478.59
2024-05-09T08:40:33.551Z,102483.88
2024-05-09T08:43:06.821Z,102458.78
2024-05-09T08:45:35.134Z,102468.66
2024-05-09T08:48:06.060Z,102471.75
2024-05-09T08:50:38.766Z,102465.09
2024-05-09T08:53:07.473Z,102477.66
2024-05-09T08:55:35.453Z,102484.59
2024-05-09T08:58:04.238Z,102471.69
2024-05-09T09:00:36.844Z,102470.84
2024-05-09T09:03:09.071Z,102485.13
2024-05-09T09:05:38.504Z,102472.81
2024-05-09T09:08:07.883Z,102476.75
2024-05-09T09:10:35.593Z,102465.91
2024-05-09T09:13:04.445Z,102482.50
2024-05-09T09:15:31.789Z,102455.88
2024-05-09T09:18:01.730Z,102467.78
2024-05-09T09:20:35.886Z,102471.56
2024-05-09T09:23:04.598Z,102472.59
2024-05-09T09:25:31.843Z,102460.66
2024-05-09T09:27:59.326Z,102460.69
2024-05-09T09:30:36.300Z,102465.72
2024-05-09T09:33:06.063Z,102457.00
2024-05-09T09:35:33.006Z,102463.59
2024-05-09T09:38:02.879Z,102456.44
2024-05-09T09:40:37.209Z,102457.25
2024-05-09T09:43:14.121Z,102465.25
2024-05-09T09:45:43.256Z,102459.91
2024-05-09T09:48:11.941Z,102456.25
2024-05-09T09:50:40.124Z,102436.22
2024-05-09T09:53:07.892Z,102452.88
2024-05-09T09:55:35.682Z,102441.63
2024-05-09T09:58:04.105Z,102439.81
2024-05-09T10:00:33.613Z,102422.91
2024-05-09T10:03:01.710Z,102423.53
2024-05-09T10:05:29.379Z,102424.78
2024-05-09T10:07:57.428Z,102442.22
2024-05-09T10:10:31.644Z,102446.38
2024-05-09T10:13:09.089Z,102450.25
2024-05-09T10:15:52.299Z,102445.38
2024-05-09T10:18:28.118Z,102417.50
2024-05-09T10:20:57.105Z,102442.94
2024-05-09T10:23:32.344Z,102440.75
2024-05-09T10:26:06.240Z,102434.44
2024-05-09T10:28:37.551Z,102434.44
2024-05-09T10:31:15.466Z,102425.25
2024-05-09T10:33:51.766Z,102427.78
2024-05-09T10:36:26.194Z,102410.34
2024-05-09T10:38:53.958Z,102430.84
2024-05-09T10:41:22.689Z,102423.47
2024-05-09T10:43:50.494Z,102420.16
2024-05-09T10:46:19.120Z,102419.38
2024-05-09T10:48:47.376Z,102404.81
2024-05-09T10:51:14.683Z,102409.22
2024-05-09T10:53:46.153Z,102406.75
2024-05-09T10:56:16.532Z,102376.41
2024-05-09T10:58:43.312Z,102391.13
2024-05-09T11:01:11.040Z,102385.66
2024-05-09T11:03:39.042Z,102383.13
2024-05-09T11:06:06.646Z,102398.50
2024-05-09T11:08:34.046Z,102394.13
2024-05-09T11:11:03.004Z,102400.41
2024-05-09T11:13:31.627Z,102400.41
2024-05-09T11:16:02.185Z,102395.31
2024-05-09T11:18:33.807Z,102390.00
2024-05-09T11:21:11.148Z,102390.63
2024-05-09T11:23:38.128Z,102381.34
2024-05-09T11:26:04.930Z,102377.56
2024-05-09T11:28:31.603Z,102387.25
2024-05-09T11:31:10.112Z,102392.75
2024-05-09T11:33:39.130Z,102391.38
2024-05-09T11:36:07.055Z,102382.72
2024-05-09T11:38:33.706Z,102377.88
2024-05-09T11:41:00.340Z,102376.84
2024-05-09T11:43:27.019Z,102380.81
2024-05-09T11:45:53.782Z,102358.09
2024-05-09T11:48:20.783Z,102363.34
2024-05-09T11:50:47.505Z,102373.66
2024-05-09T11:53:14.070Z,102358.25
2024-05-09T11:55:40.662Z,102350.66
2024-05-09T11:58:08.387Z,102340.94
2024-05-09T12:00:37.456Z,102372.34
2024-05-09T12:03:05.871Z,102366.44
2024-05-09T12:05:34.136Z,102344.16
2024-05-09T12:08:01.463Z,102360.16
2024-05-09T12:10:33.428Z,102345.03
2024-05-09T12:13:04.378Z,102354.94
2024-05-09T12:15:32.494Z,102351.97
2024-05-09T12:18:01.691Z,102346.50
2024-05-09T12:20:36.584Z,102346.06
2024-05-09T12:23:06.467Z,102344.19
2024-05-09T12:25:33.277Z,102354.94
2024-05-09T12:28:00.311Z,102344.19
2024-05-09T12:30:35.513Z,102339.34
2024-05-09T12:33:06.765Z,102346.28
2024-05-09T12:35:33.400Z,102352.81
2024-05-09T12:38:00.291Z,102349.03
2024-05-09T12:40:35.333Z,102354.94
2024-05-09T12:43:06.126Z,102332.59
2024-05-09T12:45:32.971Z,102330.91
2024-05-09T12:47:59.808Z,102329.00
2024-05-09T12:50:32.405Z,102335.34
2024-05-09T12:53:01.006Z,102336.59
2024-05-09T12:55:28.553Z,102339.97
2024-05-09T12:57:57.261Z,102306.50
2024-05-09T13:00:31.086Z,102325.03
2024-05-09T13:03:01.202Z,102312.81
2024-05-09T13:05:28.494Z,102311.56
2024-05-09T13:07:56.671Z,102331.75
2024-05-09T13:10:30.854Z,102321.69
2024-05-09T13:13:00.798Z,102316.84
2024-05-09T13:15:28.094Z,102319.34
2024-05-09T13:17:57.277Z,102299.94
2024-05-09T13:20:31.986Z,102321.44
2024-05-09T13:23:02.663Z,102319.53
2024-05-09T13:25:29.373Z,102308.81
2024-05-09T13:27:56.741Z,102320.63
2024-05-09T13:30:29.820Z,102303.16
2024-05-09T13:33:06.323Z,102306.50
2024-05-09T13:35:35.325Z,102313.03
2024-05-09T13:38:03.735Z,102283.97
2024-05-09T13:40:34.443Z,102309.41
2024-05-09T13:43:04.076Z,102304.72
2024-05-09T13:45:31.073Z,102288.44
2024-05-09T13:47:58.168Z,102309.06
2024-05-09T13:50:33.176Z,102302.50
2024-05-09T13:53:02.694Z,102293.66
2024-05-09T13:55:29.264Z,102316.13
2024-05-09T13:57:56.335Z,102298.69
2024-05-09T14:00:37.350Z,102300.56
2024-05-09T14:03:10.071Z,102288.59
2024-05-09T14:05:37.034Z,102296.59
2024-05-09T14:08:04.144Z,102289.69
2024-05-09T14:10:32.228Z,102288.94
2024-05-09T14:13:00.749Z,102268.97
2024-05-09T14:15:27.773Z,102264.16
2024-05-09T14:17:55.301Z,102275.94
2024-05-09T14:20:31.035Z,102280.78
2024-05-09T14:23:00.398Z,102279.09
2024-05-09T14:25:28.633Z,102267.09
2024-05-09T14:27:57.533Z,102267.75
2024-05-09T14:30:31.020Z,102254.47
2024-05-09T14:33:04.155Z,102274.00
2024-05-09T14:35:30.975Z,102266.22
2024-05-09T14:37:57.679Z,102262.66
2024-05-09T14:42:53.725Z,102268.31
2024-05-09T14:45:20.738Z,102263.00
2024-05-09T14:47:47.467Z,102270.13
2024-05-09T14:50:23.528Z,102258.94
2024-05-09T14:52:54.768Z,102262.47
2024-05-09T14:55:21.499Z,102248.81
2024-05-09T14:57:48.345Z,102234.66
2024-05-09T15:00:21.473Z,102243.91
2024-05-09T15:02:55.447Z,102247.06
2024-05-09T15:05:47.936Z,102250.94
2024-05-09T15:08:17.429Z,102250.53
2024-05-09T15:10:44.224Z,102232.81
2024-05-09T15:13:13.241Z,102244.44
2024-05-09T15:15:41.864Z,102248.00
2024-05-09T15:18:08.798Z,102246.75
2024-05-09T15:20:37.131Z,102242.09
2024-05-09T15:23:05.522Z,102239.75
2024-05-09T15:25:33.533Z,102242.66
2024-05-09T15:28:00.420Z,102232.53
2024-05-09T15:30:31.443Z,102232.38
2024-05-09T15:33:00.859Z,102240.06
2024-05-09T15:35:27.926Z,102237.97
2024-05-09T15:37:54.650Z,102239.00
2024-05-09T15:40:30.885Z,102221.22
2024-05-09T15:43:05.219Z,102238.59
2024-05-09T15:45:32.145Z,102227.28
2024-05-09T15:47:59.596Z,102241.75
2024-05-09T15:50:36.080Z,102244.59
2024-05-09T15:53:07.630Z,102246.66
2024-05-09T15:55:35.190Z,102229.84
2024-05-09T15:58:03.216Z,102235.44
2024-05-09T16:00:37.803Z,102235.00
2024-05-09T16:03:12.775Z,102234.16
2024-05-09T16:05:41.410Z,102228.16
2024-05-09T16:08:08.995Z,102201.66
2024-05-09T16:10:37.063Z,102225.78
2024-05-09T16:13:04.991Z,102226.06
2024-05-09T16:15:32.139Z,102224.88
2024-05-09T16:17:59.785Z,102229.16
2024-05-09T16:20:34.959Z,102227.75
2024-05-09T16:23:07.300Z,102224.75
2024-05-09T16:25:34.093Z,102229.34
2024-05-09T16:28:01.748Z,102207.75
2024-05-09T16:30:34.500Z,102228.09
2024-05-09T16:33:04.303Z,102222.72
2024-05-09T16:35:32.119Z,102221.25
2024-05-09T16:38:02.198Z,102223.66
2024-05-09T16:40:36.400Z,102225.78
2024-05-09T16:43:06.696Z,102224.91
2024-05-09T16:45:34.240Z,102215.22
2024-05-09T16:48:01.913Z,102216.84
2024-05-09T16:50:33.466Z,102220.59
2024-05-09T16:53:02.444Z,102216.75
2024-05-09T16:55:29.136Z,102195.28
2024-05-09T16:57:57.255Z,102211.88
2024-05-09T17:00:35.221Z,102204.13
2024-05-09T17:03:08.702Z,102210.38
2024-05-09T17:05:36.120Z,102211.06
2024-05-09T17:08:03.472Z,102209.03
2024-05-09T17:10:33.609Z,102199.09
2024-05-09T17:13:03.265Z,102206.22
2024-05-09T17:15:31.931Z,102188.97
2024-05-09T17:17:58.828Z,102201.19
2024-05-09T17:20:32.211Z,102177.03
2024-05-09T17:23:02.729Z,102190.09
2024-05-09T17:25:29.552Z,102206.00
2024-05-09T17:27:57.072Z,102213.50
2024-05-09T17:30:32.003Z,102205.75
2024-05-09T17:33:03.978Z,102196.59
2024-05-09T17:35:31.660Z,102175.94
2024-05-09T17:37:59.580Z,102206.09
2024-05-09T17:40:32.622Z,102205.59
2024-05-09T17:43:02.994Z,102199.16
2024-05-09T17:45:29.799Z,102202.22
2024-05-09T17:47:56.770Z,102204.06
2024-05-09T17:50:30.369Z,102202.41
2024-05-09T17:53:01.290Z,102201.38
2024-05-09T17:55:28.666Z,102201.38
2024-05-09T17:57:55.553Z,102198.69
2024-05-09T18:00:32.846Z,102205.94
2024-05-09T18:03:05.882Z,102201.31
2024-05-09T18:05:32.942Z,102193.53
2024-05-09T18:07:59.966Z,102212.16
2024-05-09T18:10:33.698Z,102213.50
2024-05-09T18:13:05.313Z,102186.03
2024-05-09T18:15:32.322Z,102220.22
2024-05-09T18:17:59.445Z,102212.09
2024-05-09T18:20:32.994Z,102214.63
2024-05-09T18:23:07.863Z,102210.03
2024-05-09T18:25:34.911Z,102190.34
2024-05-09T18:28:02.795Z,102217.75
2024-05-09T18:30:34.754Z,102211.84
2024-05-09T18:33:04.313Z,102208.06
2024-05-09T18:35:31.686Z,102214.31
2024-05-09T18:37:58.402Z,102207.84
2024-05-09T18:40:32.415Z,102212.38
2024-05-09T18:43:02.953Z,102211.13
2024-05-09T18:45:29.834Z,102173.47
2024-05-09T18:47:56.831Z,102201.22
2024-05-09T18:50:32.235Z,102215.38
2024-05-09T18:53:03.471Z,102215.84
2024-05-09T18:55:30.047Z,102224.22
2024-05-09T18:57:56.991Z,102224.84
2024-05-09T19:00:33.208Z,102201.88
2024-05-09T19:03:05.592Z,102221.16
2024-05-09T19:05:33.294Z,102211.38
2024-05-09T19:08:00.424Z,102228.41
2024-05-09T19:10:33.704Z,102228.34
2024-05-09T19:13:04.312Z,102231.06
2024-05-09T19:15:33.646Z,102216.81
2024-05-09T19:18:00.662Z,102209.81
2024-05-09T19:20:33.166Z,102222.59
2024-05-09T19:23:01.538Z,102220.50
2024-05-09T19:25:28.125Z,102225.38
2024-05-09T19:27:54.782Z,102228.50
2024-05-09T19:30:29.908Z,102221.72
2024-05-09T19:33:04.944Z,102232.94
2024-05-09T19:35:32.227Z,102231.84
2024-05-09T19:37:58.997Z,102229.47
2024-05-09T19:40:31.299Z,102220.03
2024-05-09T19:43:00.442Z,102235.91
2024-05-09T19:45:27.351Z,102223.00
2024-05-09T19:47:54.264Z,102230.38
2024-05-09T19:50:27.139Z,102229.44
2024-05-09T19:53:03.096Z,102200.69
2024-05-09T19:55:29.920Z,102224.09
2024-05-09T19:57:56.931Z,102222.53
2024-05-09T20:00:32.321Z,102219.56
2024-05-09T20:03:02.387Z,102219.31
2024-05-09T20:05:31.465Z,102212.94
2024-05-09T20:07:58.386Z,102200.78
2024-05-09T20:10:31.126Z,102196.66
2024-05-09T20:13:00.026Z,102222.19
2024-05-09T20:15:26.866Z,102223.47
2024-05-09T20:17:54.343Z,102207.47
2024-05-09T20:20:32.085Z,102207.06
2024-05-09T20:23:03.903Z,102216.69
2024-05-09T20:25:30.509Z,102231.72
2024-05-09T20:27:57.175Z,102221.50
2024-05-09T20:30:31.225Z,102217.25
2024-05-09T20:32:59.994Z,102223.22
2024-05-09T20:35:26.958Z,102219.81
2024-05-09T20:37:53.651Z,102223.50
2024-05-09T20:40:28.344Z,102214.03
2024-05-09T20:42:59.208Z,102195.63
2024-05-09T20:45:26.351Z,102224.34
2024-05-09T20:47:53.220Z,102227.88
2024-05-09T20:50:28.523Z,102222.06
2024-05-09T20:53:03.027Z,102226.31
2024-05-09T20:55:30.068Z,102222.50
2024-05-09T20:57:57.525Z,102225.91
2024-05-09T21:00:34.308Z,102195.56
2024-05-09T21:03:06.723Z,102212.72
2024-05-09T21:05:34.648Z,102223.47
2024-05-09T21:08:01.854Z,102227.84
2024-05-09T21:10:32.732Z,102217.09
2024-05-09T21:13:01.407Z,102219.78
2024-05-09T21:15:28.359Z,102215.09
2024-05-09T21:17:55.215Z,102227.16
2024-05-09T21:20:28.700Z,102222.34
2024-05-09T21:22:58.195Z,102229.69
2024-05-09T21:25:24.858Z,102209.59
2024-05-09T21:27:51.529Z,102198.97
2024-05-09T21:30:27.295Z,102229.56
2024-05-09T21:32:59.934Z,102234.25
2024-05-09T21:35:26.595Z,102227.28
2024-05-09T21:37:53.173Z,102233.28
2024-05-09T21:40:27.278Z,102210.19
2024-05-09T21:43:00.776Z,102235.97
2024-05-09T21:45:27.551Z,102235.25
2024-05-09T21:47:54.306Z,102223.63
2024-05-09T21:50:27.634Z,102218.53
2024-05-09T21:52:58.910Z,102214.28
2024-05-09T21:55:25.540Z,102212.72
2024-05-09T21:57:52.385Z,102215.59
2024-05-09T22:00:28.710Z,102215.88
2024-05-09T22:03:02.664Z,102214.31
2024-05-09T22:05:29.604Z,102209.19
2024-05-09T22:07:57.162Z,102206.94
2024-05-09T22:10:30.520Z,102201.84
2024-05-09T22:13:01.045Z,102203.00
2024-05-09T22:15:28.266Z,102195.19
2024-05-09T22:17:57.125Z,102195.47
2024-05-09T22:20:32.952Z,102190.22
2024-05-09T22:23:03.998Z,102181.75
2024-05-09T22:25:31.478Z,102170.41
2024-05-09T22:27:59.025Z,102161.31
2024-05-09T22:30:34.178Z,102184.56
2024-05-09T22:33:05.746Z,102180.63
2024-05-09T22:35:32.741Z,102183.31
2024-05-09T22:37:59.424Z,102184.53
2024-05-09T22:40:38.030Z,102177.03
2024-05-09T22:43:12.824Z,102177.31
2024-05-09T22:45:39.623Z,102150.81
2024-05-09T22:48:07.643Z,102179.72
2024-05-09T22:50:34.610Z,102169.38
2024-05-09T22:53:01.375Z,102191.16
2024-05-09T22:55:28.107Z,102191.88
2024-05-09T22:57:55.037Z,102185.66
2024-05-09T23:00:29.444Z,102190.88
2024-05-09T23:03:00.337Z,102193.41
2024-05-09T23:05:27.319Z,102193.25
2024-05-09T23:07:54.028Z,102166.66
2024-05-09T23:10:27.904Z,102185.63
2024-05-09T23:13:00.826Z,102162.25
2024-05-09T23:15:27.484Z,102190.28
2024-05-09T23:17:54.269Z,102191.16
2024-05-09T23:20:30.028Z,102190.44
2024-05-09T23:23:03.714Z,102188.59
2024-05-09T23:25:30.403Z,102188.72
2024-05-09T23:27:57.230Z,102170.75
2024-05-09T23:30:33.335Z,102183.50
2024-05-09T23:33:05.426Z,102182.63
2024-05-09T23:35:32.106Z,102159.41
2024-05-09T23:37:58.693Z,102165.78
2024-05-09T23:40:36.825Z,102166.22
2024-05-09T23:43:07.360Z,102170.44
2024-05-09T23:45:34.613Z,102156.88
2024-05-09T23:48:01.720Z,102176.81
2024-05-09T23:50:34.125Z,102179.50
2024-05-09T23:53:03.942Z,102171.03
2024-05-09T23:55:31.458Z,102174.44
2024-05-09T23:57:58.355Z,102164.78
